createdAt,value
2018-07-09T00:00:51.969Z,69.04
2018-07-09T00:03:20.273Z,67.34
2018-07-09T00:05:49.697Z,68.03
2018-07-09T00:08:18.404Z,69.51
2018-07-09T00:11:05.639Z,68.91
2018-07-09T00:13:34.579Z,69.31
2018-07-09T00:16:03.056Z,68.50
2018-07-09T00:18:31.599Z,68.36
2018-07-09T00:20:59.849Z,70.08
2018-07-09T00:23:28.191Z,69.62
2018-07-09T00:25:57.217Z,68.94
2018-07-09T00:28:25.939Z,68.62
2018-07-09T00:30:54.127Z,69.62
2018-07-09T00:33:22.683Z,70.37
2018-07-09T00:35:50.877Z,69.79
2018-07-09T00:38:19.605Z,69.62
2018-07-09T00:40:47.875Z,70.49
2018-07-09T00:43:16.088Z,69.68
2018-07-09T00:45:44.357Z,70.31
2018-07-09T00:48:12.657Z,70.36
2018-07-09T00:50:40.848Z,69.28
2018-07-09T00:53:09.067Z,70.85
2018-07-09T00:55:37.283Z,71.04
2018-07-09T00:58:05.855Z,70.44
2018-07-09T01:00:34.316Z,70.45
2018-07-09T01:03:02.572Z,71.34
2018-07-09T01:05:30.826Z,71.20
2018-07-09T01:07:59.063Z,71.81
2018-07-09T01:10:27.262Z,72.70
2018-07-09T01:12:55.490Z,72.65
2018-07-09T01:15:23.738Z,72.55
2018-07-09T01:17:52.032Z,72.55
2018-07-09T01:20:20.437Z,73.10
2018-07-09T01:22:49.010Z,71.62
2018-07-09T01:25:17.358Z,72.13
2018-07-09T01:27:45.625Z,72.37
2018-07-09T01:30:15.868Z,71.72
2018-07-09T01:32:44.123Z,73.24
2018-07-09T01:35:13.154Z,73.71
2018-07-09T01:37:41.989Z,72.50
2018-07-09T01:40:10.544Z,71.81
2018-07-09T01:42:38.843Z,72.45
2018-07-09T01:45:07.143Z,71.92
2018-07-09T01:47:35.398Z,71.70
2018-07-09T01:50:03.735Z,71.87
2018-07-09T01:52:32.309Z,72.95
2018-07-09T01:55:01.052Z,73.23
2018-07-09T01:57:29.325Z,72.54
2018-07-09T01:59:57.603Z,72.11
2018-07-09T02:02:25.866Z,72.33
2018-07-09T02:04:54.180Z,71.86
2018-07-09T02:07:22.425Z,71.69
2018-07-09T02:09:50.803Z,71.75
2018-07-09T02:12:19.086Z,73.58
2018-07-09T02:14:47.325Z,73.41
2018-07-09T02:17:15.561Z,72.59
2018-07-09T02:19:43.781Z,72.85
2018-07-09T02:22:12.030Z,72.95
2018-07-09T02:24:40.256Z,73.45
2018-07-09T02:27:08.557Z,72.99
2018-07-09T02:29:36.795Z,73.24
2018-07-09T02:32:05.035Z,72.88
2018-07-09T02:34:33.288Z,73.05
2018-07-09T02:37:01.504Z,73.95
2018-07-09T02:39:29.760Z,74.59
2018-07-09T02:41:58.007Z,73.72
2018-07-09T02:44:26.274Z,74.19
2018-07-09T02:46:54.529Z,74.23
2018-07-09T02:49:22.781Z,75.12
2018-07-09T02:51:51.043Z,73.56
2018-07-09T02:54:19.370Z,73.84
2018-07-09T02:56:47.642Z,74.18
2018-07-09T02:59:15.978Z,73.95
2018-07-09T03:01:44.328Z,74.47
2018-07-09T03:04:12.617Z,74.65
2018-07-09T03:06:40.861Z,74.83
2018-07-09T03:09:09.140Z,74.66
2018-07-09T03:11:37.464Z,74.29
2018-07-09T03:14:06.368Z,74.26
2018-07-09T03:16:34.863Z,74.77
2018-07-09T03:19:03.224Z,74.94
2018-07-09T03:21:31.557Z,74.17
2018-07-09T03:23:59.789Z,74.40
2018-07-09T03:26:28.050Z,74.04
2018-07-09T03:28:56.334Z,74.16
2018-07-09T03:31:24.631Z,74.18
2018-07-09T03:33:52.883Z,74.75
2018-07-09T03:36:21.176Z,74.69
2018-07-09T03:38:49.400Z,75.01
2018-07-09T03:41:17.674Z,74.12
2018-07-09T03:43:45.953Z,73.78
2018-07-09T03:46:14.212Z,74.32
2018-07-09T03:48:42.460Z,73.32
2018-07-09T03:51:10.699Z,73.87
2018-07-09T03:53:38.998Z,74.42
2018-07-09T03:56:07.432Z,74.56
2018-07-09T03:58:36.502Z,74.53
2018-07-09T04:01:04.725Z,74.58
2018-07-09T04:03:32.972Z,73.73
2018-07-09T04:06:01.320Z,73.22
2018-07-09T04:08:29.556Z,74.35
2018-07-09T04:10:57.808Z,74.06
2018-07-09T04:13:26.048Z,74.25
2018-07-09T04:15:54.282Z,73.42
2018-07-09T04:18:29.146Z,74.41
2018-07-09T04:20:57.488Z,72.34
2018-07-09T04:23:25.678Z,73.19
2018-07-09T04:25:53.902Z,75.31
2018-07-09T04:28:22.458Z,74.55
2018-07-09T04:30:51.040Z,74.73
2018-07-09T04:33:19.670Z,75.97
2018-07-09T04:35:47.888Z,74.88
2018-07-09T04:38:16.422Z,74.94
2018-07-09T04:40:44.673Z,76.30
2018-07-09T04:43:13.010Z,75.77
2018-07-09T04:45:41.219Z,74.42
2018-07-09T04:48:09.482Z,75.09
2018-07-09T04:50:37.721Z,75.38
2018-07-09T04:53:06.722Z,74.74
2018-07-09T04:55:35.073Z,75.69
2018-07-09T04:58:03.343Z,75.24
2018-07-09T05:00:31.620Z,75.05
2018-07-09T05:02:59.866Z,75.57
2018-07-09T05:05:28.358Z,76.03
2018-07-09T05:07:56.629Z,76.85
2018-07-09T05:10:24.927Z,76.99
2018-07-09T05:12:53.444Z,76.12
2018-07-09T05:15:21.703Z,76.57
2018-07-09T05:17:49.954Z,76.39
2018-07-09T05:20:18.220Z,76.16
2018-07-09T05:22:46.469Z,76.58
2018-07-09T05:25:14.793Z,76.13
2018-07-09T05:27:43.066Z,75.64
2018-07-09T05:30:11.347Z,76.11
2018-07-09T05:32:39.714Z,76.65
2018-07-09T05:35:08.107Z,75.63
2018-07-09T05:37:36.403Z,76.55
2018-07-09T05:40:04.845Z,76.91
2018-07-09T05:42:33.059Z,76.95
2018-07-09T05:45:01.303Z,76.83
2018-07-09T05:47:29.571Z,77.53
2018-07-09T05:49:57.862Z,75.85
2018-07-09T05:52:26.103Z,77.38
2018-07-09T05:54:54.366Z,76.91
2018-07-09T05:57:22.572Z,76.94
2018-07-09T05:59:50.809Z,76.12
2018-07-09T06:02:19.095Z,76.84
2018-07-09T06:04:47.350Z,76.67
2018-07-09T06:07:15.597Z,76.24
2018-07-09T06:09:43.979Z,76.37
2018-07-09T06:12:12.275Z,75.49
2018-07-09T06:14:40.561Z,75.86
2018-07-09T06:17:09.068Z,76.79
2018-07-09T06:19:37.349Z,75.73
2018-07-09T06:22:05.621Z,76.46
2018-07-09T06:24:33.856Z,76.74
2018-07-09T06:27:02.143Z,76.09
2018-07-09T06:29:30.362Z,76.07
2018-07-09T06:31:58.620Z,76.16
2018-07-09T06:34:26.866Z,75.68
2018-07-09T06:36:55.101Z,75.14
2018-07-09T06:39:23.389Z,74.90
2018-07-09T06:41:51.802Z,75.95
2018-07-09T06:44:20.108Z,76.57
2018-07-09T06:46:48.333Z,76.69
2018-07-09T06:49:16.654Z,75.79
2018-07-09T06:51:44.866Z,77.39
2018-07-09T06:54:13.075Z,76.40
2018-07-09T06:56:41.330Z,76.01
2018-07-09T06:59:09.531Z,75.85
2018-07-09T07:01:37.745Z,76.14
2018-07-09T07:04:06.033Z,76.67
2018-07-09T07:06:34.304Z,76.56
2018-07-09T07:09:02.622Z,75.64
2018-07-09T07:11:30.837Z,75.88
2018-07-09T07:13:59.075Z,75.77
2018-07-09T07:16:27.354Z,75.78
2018-07-09T07:18:55.508Z,76.10
2018-07-09T07:21:23.727Z,75.61
2018-07-09T07:23:52.020Z,75.75
2018-07-09T07:26:20.246Z,76.35
2018-07-09T07:28:48.578Z,75.49
2018-07-09T07:31:16.792Z,76.07
2018-07-09T07:33:45.011Z,75.65
2018-07-09T07:36:13.234Z,75.01
2018-07-09T07:38:42.117Z,74.58
2018-07-09T07:41:10.355Z,74.78
2018-07-09T07:43:38.615Z,74.41
2018-07-09T07:46:06.847Z,74.80
2018-07-09T07:48:35.108Z,74.22
2018-07-09T07:51:03.398Z,73.62
2018-07-09T07:53:31.604Z,73.47
2018-07-09T07:55:59.855Z,74.26
2018-07-09T07:58:28.126Z,73.94
2018-07-09T08:00:56.324Z,73.40
2018-07-09T08:03:24.582Z,73.97
2018-07-09T08:05:52.809Z,74.10
2018-07-09T08:08:21.159Z,74.59
2018-07-09T08:10:49.491Z,74.78
2018-07-09T08:13:27.981Z,74.29
2018-07-09T08:15:46.005Z,74.30
2018-07-09T08:18:15.119Z,74.58
2018-07-09T08:20:43.400Z,74.61
2018-07-09T08:23:11.622Z,75.08
2018-07-09T08:25:40.028Z,75.16
2018-07-09T08:28:08.118Z,74.82
2018-07-09T08:30:36.395Z,75.22
2018-07-09T08:33:04.594Z,74.06
2018-07-09T08:35:32.826Z,74.41
2018-07-09T08:38:01.060Z,73.90
2018-07-09T08:40:30.018Z,74.26
2018-07-09T08:42:58.243Z,73.94
2018-07-09T08:45:26.571Z,73.79
2018-07-09T08:47:54.860Z,73.29
2018-07-09T08:50:23.098Z,71.99
2018-07-09T08:52:51.321Z,71.63
2018-07-09T08:55:19.587Z,70.37
2018-07-09T08:57:47.820Z,70.76
2018-07-09T09:00:16.050Z,69.60
2018-07-09T09:02:44.347Z,68.42
2018-07-09T09:05:12.688Z,68.33
2018-07-09T09:07:40.888Z,67.52
2018-07-09T09:10:09.235Z,67.54
2018-07-09T09:12:37.463Z,66.64
2018-07-09T09:15:05.995Z,66.46
2018-07-09T09:17:34.233Z,65.35
2018-07-09T09:20:02.560Z,63.28
2018-07-09T09:22:30.822Z,62.87
2018-07-09T09:24:59.047Z,63.10
2018-07-09T09:27:27.303Z,63.72
2018-07-09T09:29:55.525Z,64.33
2018-07-09T09:32:23.814Z,64.30
2018-07-09T09:34:52.066Z,64.07
2018-07-09T09:37:20.432Z,63.47
2018-07-09T09:39:48.672Z,61.10
2018-07-09T09:42:16.898Z,60.62
2018-07-09T09:44:45.182Z,60.51
2018-07-09T09:47:13.438Z,60.44
2018-07-09T09:49:41.716Z,59.80
2018-07-09T09:52:09.961Z,58.91
2018-07-09T09:54:38.256Z,56.95
2018-07-09T09:57:06.451Z,56.41
2018-07-09T09:59:34.654Z,56.87
2018-07-09T10:02:02.931Z,57.30
2018-07-09T10:04:31.866Z,57.18
2018-07-09T10:07:00.269Z,57.94
2018-07-09T10:09:28.573Z,56.26
2018-07-09T10:11:56.868Z,56.02
2018-07-09T10:14:25.083Z,55.99
2018-07-09T10:16:53.324Z,56.51
2018-07-09T10:19:21.536Z,54.21
2018-07-09T10:21:49.797Z,55.23
2018-07-09T10:24:18.000Z,54.51
2018-07-09T10:26:46.225Z,53.44
2018-07-09T10:29:14.441Z,53.31
2018-07-09T10:31:42.839Z,54.16
2018-07-09T10:34:11.681Z,54.08
2018-07-09T10:36:39.947Z,54.86
2018-07-09T10:39:08.155Z,56.81
2018-07-09T10:41:36.369Z,58.26
2018-07-09T10:44:04.590Z,57.90
2018-07-09T10:46:32.788Z,57.96
2018-07-09T10:49:01.174Z,56.17
2018-07-09T10:51:29.416Z,55.34
2018-07-09T10:53:57.639Z,55.05
2018-07-09T10:56:25.893Z,54.99
2018-07-09T10:58:54.118Z,54.92
2018-07-09T11:01:22.381Z,55.93
2018-07-09T11:03:50.611Z,55.57
2018-07-09T11:06:18.855Z,54.83
2018-07-09T11:08:47.067Z,55.65
2018-07-09T11:11:15.317Z,57.18
2018-07-09T11:13:43.555Z,56.77
2018-07-09T11:16:11.853Z,56.86
2018-07-09T11:18:40.150Z,55.88
2018-07-09T11:21:08.388Z,56.46
2018-07-09T11:23:36.683Z,55.88
2018-07-09T11:26:04.898Z,56.58
2018-07-09T11:28:33.129Z,55.55
2018-07-09T11:31:01.371Z,54.43
2018-07-09T11:33:29.573Z,54.40
2018-07-09T11:35:57.864Z,55.21
2018-07-09T11:38:26.074Z,56.09
2018-07-09T11:40:54.328Z,54.78
2018-07-09T11:43:22.562Z,53.34
2018-07-09T11:45:50.824Z,52.58
2018-07-09T11:48:19.038Z,53.45
2018-07-09T11:50:47.453Z,53.17
2018-07-09T11:53:15.716Z,52.38
2018-07-09T11:55:44.023Z,52.47
2018-07-09T11:58:12.327Z,51.46
2018-07-09T12:00:40.565Z,51.71
2018-07-09T12:03:08.776Z,51.00
2018-07-09T12:05:36.988Z,50.37
2018-07-09T12:08:05.240Z,50.43
2018-07-09T12:10:33.461Z,50.65
2018-07-09T12:13:02.178Z,50.85
2018-07-09T12:15:30.413Z,50.87
2018-07-09T12:17:58.714Z,49.80
2018-07-09T12:20:26.936Z,48.96
2018-07-09T12:22:55.176Z,49.55
2018-07-09T12:25:23.413Z,49.80
2018-07-09T12:27:51.656Z,49.76
2018-07-09T12:30:19.987Z,50.10
2018-07-09T12:32:48.221Z,49.98
2018-07-09T12:35:16.537Z,48.58
2018-07-09T12:37:44.734Z,49.01
2018-07-09T12:40:13.169Z,49.78
2018-07-09T12:42:41.555Z,49.53
2018-07-09T12:45:09.815Z,48.88
2018-07-09T12:47:38.037Z,49.87
2018-07-09T12:50:06.311Z,49.98
2018-07-09T12:52:34.691Z,49.84
2018-07-09T12:55:02.954Z,48.94
2018-07-09T12:57:31.206Z,49.23
2018-07-09T12:59:59.431Z,49.10
2018-07-09T13:02:28.289Z,48.46
2018-07-09T13:04:56.510Z,48.62
2018-07-09T13:07:24.768Z,48.25
2018-07-09T13:09:53.000Z,47.89
2018-07-09T13:12:27.346Z,47.76
2018-07-09T13:14:56.601Z,47.32
2018-07-09T13:17:24.903Z,48.83
2018-07-09T13:19:53.120Z,49.74
2018-07-09T13:22:21.320Z,50.58
2018-07-09T13:24:49.870Z,51.18
2018-07-09T13:27:18.247Z,51.20
2018-07-09T13:29:46.920Z,50.87
2018-07-09T13:32:15.162Z,51.19
2018-07-09T13:34:43.513Z,52.23
2018-07-09T13:37:11.737Z,52.61
2018-07-09T13:39:39.970Z,52.60
2018-07-09T13:42:08.231Z,52.15
2018-07-09T13:44:36.411Z,51.46
2018-07-09T13:47:04.828Z,51.08
2018-07-09T13:49:33.114Z,51.84
2018-07-09T13:52:02.064Z,52.99
2018-07-09T13:54:30.368Z,53.53
2018-07-09T13:56:58.599Z,54.62
2018-07-09T13:59:26.832Z,53.75
2018-07-09T14:01:55.065Z,54.11
2018-07-09T14:04:23.257Z,54.39
2018-07-09T14:06:51.532Z,54.98
2018-07-09T14:09:19.803Z,55.49
2018-07-09T14:11:48.054Z,53.19
2018-07-09T14:14:16.270Z,53.27
2018-07-09T14:16:44.521Z,52.72
2018-07-09T14:20:30.784Z,52.70
2018-07-09T14:22:59.693Z,52.92
2018-07-09T14:25:28.019Z,53.01
2018-07-09T14:27:56.239Z,53.70
2018-07-09T14:30:24.593Z,54.31
2018-07-09T14:32:52.892Z,52.83
2018-07-09T14:35:21.277Z,52.70
2018-07-09T14:37:49.536Z,52.73
2018-07-09T14:40:17.822Z,53.06
2018-07-09T14:42:46.026Z,51.94
2018-07-09T14:45:14.682Z,52.22
2018-07-09T14:47:42.916Z,52.12
2018-07-09T14:50:11.130Z,52.90
2018-07-09T14:52:39.416Z,52.87
2018-07-09T14:55:07.649Z,51.75
2018-07-09T14:57:35.850Z,51.29
2018-07-09T15:00:04.538Z,51.62
2018-07-09T15:02:32.827Z,51.95
2018-07-09T15:05:01.144Z,51.37
2018-07-09T15:07:29.405Z,52.00
2018-07-09T15:09:57.622Z,51.76
2018-07-09T15:12:25.912Z,51.25
2018-07-09T15:14:54.140Z,51.21
2018-07-09T15:17:22.414Z,50.69
2018-07-09T15:19:50.678Z,50.45
2018-07-09T15:22:18.916Z,50.12
2018-07-09T15:24:47.195Z,51.05
2018-07-09T15:27:15.423Z,50.48
2018-07-09T15:29:43.657Z,50.86
2018-07-09T15:32:24.039Z,51.00
2018-07-09T15:34:52.578Z,51.03
2018-07-09T15:37:20.886Z,51.47
2018-07-09T15:39:50.119Z,52.05
2018-07-09T15:42:18.451Z,51.96
2018-07-09T15:44:46.767Z,51.84
2018-07-09T15:47:15.044Z,52.25
2018-07-09T15:49:45.483Z,51.04
2018-07-09T15:52:15.899Z,52.69
2018-07-09T15:54:44.889Z,52.35
2018-07-09T15:57:13.880Z,52.39
2018-07-09T15:59:42.903Z,52.64
2018-07-09T16:02:11.949Z,53.08
2018-07-09T16:04:40.664Z,54.18
2018-07-09T16:07:09.186Z,52.51
2018-07-09T16:09:37.529Z,53.15
2018-07-09T16:12:06.160Z,54.61
2018-07-09T16:14:34.645Z,53.09
2018-07-09T16:17:03.137Z,52.96
2018-07-09T16:19:31.454Z,53.57
2018-07-09T16:22:00.070Z,54.25
2018-07-09T16:24:28.303Z,54.42
2018-07-09T16:26:56.779Z,53.78
2018-07-09T16:29:25.177Z,52.91
2018-07-09T16:31:53.717Z,53.42
2018-07-09T16:34:23.347Z,53.42
2018-07-09T16:36:51.680Z,53.17
2018-07-09T16:39:20.216Z,54.47
2018-07-09T16:41:49.036Z,54.10
2018-07-09T16:44:17.544Z,54.30
2018-07-09T16:46:48.125Z,53.84
2018-07-09T16:49:17.711Z,54.19
2018-07-09T16:51:47.517Z,53.84
2018-07-09T16:54:16.138Z,53.77
2018-07-09T16:56:44.633Z,53.93
2018-07-09T16:59:13.114Z,54.45
2018-07-09T17:01:41.666Z,53.50
2018-07-09T17:04:10.000Z,52.76
2018-07-09T17:06:38.209Z,53.14
2018-07-09T17:09:07.355Z,53.66
2018-07-09T17:11:35.590Z,53.41
2018-07-09T17:14:03.955Z,54.12
2018-07-09T17:16:32.192Z,53.18
2018-07-09T17:19:00.424Z,52.39
2018-07-09T17:21:28.664Z,53.05
2018-07-09T17:23:56.967Z,54.10
2018-07-09T17:26:25.284Z,53.94
2018-07-09T17:28:53.923Z,53.29
2018-07-09T17:31:22.169Z,52.86
2018-07-09T17:33:50.494Z,53.05
2018-07-09T17:36:18.768Z,53.79
2018-07-09T17:38:47.020Z,54.17
2018-07-09T17:41:15.256Z,54.21
2018-07-09T17:43:43.534Z,54.91
2018-07-09T17:46:11.730Z,54.72
2018-07-09T17:48:39.944Z,55.42
2018-07-09T17:51:08.267Z,55.33
2018-07-09T17:53:36.480Z,55.71
2018-07-09T17:56:04.815Z,55.52
2018-07-09T17:58:33.031Z,54.92
2018-07-09T18:01:01.285Z,55.45
2018-07-09T18:03:29.516Z,55.72
2018-07-09T18:05:58.028Z,55.28
2018-07-09T18:08:26.385Z,55.98
2018-07-09T18:10:54.692Z,55.67
2018-07-09T18:13:23.076Z,55.72
2018-07-09T18:15:51.294Z,55.14
2018-07-09T18:18:19.547Z,55.93
2018-07-09T18:20:47.778Z,56.03
2018-07-09T18:23:16.010Z,56.23
2018-07-09T18:25:44.248Z,55.73
2018-07-09T18:28:12.450Z,55.91
2018-07-09T18:30:40.735Z,56.48
2018-07-09T18:33:08.969Z,56.59
2018-07-09T18:35:37.372Z,56.30
2018-07-09T18:38:05.494Z,57.18
2018-07-09T18:40:33.739Z,56.15
2018-07-09T18:43:01.994Z,56.59
2018-07-09T18:45:30.213Z,56.39
2018-07-09T18:47:58.461Z,56.62
2018-07-09T18:50:26.682Z,56.68
2018-07-09T18:52:54.995Z,56.14
2018-07-09T18:55:23.240Z,56.53
2018-07-09T18:57:51.505Z,55.72
2018-07-09T19:00:19.774Z,56.46
2018-07-09T19:02:48.292Z,55.92
2018-07-09T19:05:16.923Z,55.65
2018-07-09T19:07:45.284Z,55.46
2018-07-09T19:10:13.804Z,56.78
2018-07-09T19:12:42.057Z,56.41
2018-07-09T19:15:10.278Z,56.96
2018-07-09T19:18:00.379Z,56.05
2018-07-09T19:20:39.817Z,55.61
2018-07-09T19:23:07.868Z,56.89
2018-07-09T19:25:36.031Z,56.01
2018-07-09T19:28:04.511Z,56.62
2018-07-09T19:30:31.699Z,56.20
2018-07-09T19:32:58.943Z,57.50
2018-07-09T19:35:26.418Z,57.77
2018-07-09T19:37:54.008Z,57.77
2018-07-09T19:40:20.850Z,58.03
2018-07-09T19:42:48.017Z,58.50
2018-07-09T19:45:15.233Z,57.60
2018-07-09T19:47:42.529Z,57.83
2018-07-09T19:50:09.788Z,58.26
2018-07-09T19:52:37.089Z,57.17
2018-07-09T19:55:04.325Z,58.58
2018-07-09T19:57:31.515Z,57.47
2018-07-09T19:59:59.779Z,57.87
2018-07-09T20:02:28.188Z,60.02
2018-07-09T20:04:56.886Z,58.00
2018-07-09T20:07:24.096Z,59.06
2018-07-09T20:09:57.014Z,58.80
2018-07-09T20:12:29.719Z,58.31
2018-07-09T20:15:02.326Z,59.18
2018-07-09T20:17:29.770Z,59.13
2018-07-09T20:19:56.958Z,58.26
2018-07-09T20:22:24.166Z,59.46
2018-07-09T20:24:51.351Z,59.67
2018-07-09T20:27:18.537Z,60.12
2018-07-09T20:29:45.680Z,59.41
2018-07-09T20:32:12.923Z,60.00
2018-07-09T20:34:40.100Z,59.60
2018-07-09T20:37:07.402Z,60.78
2018-07-09T20:39:34.768Z,60.65
2018-07-09T20:42:01.983Z,61.19
2018-07-09T20:44:29.183Z,61.11
2018-07-09T20:46:56.470Z,61.40
2018-07-09T20:49:23.745Z,60.43
2018-07-09T20:51:51.144Z,61.30
2018-07-09T20:54:18.402Z,61.12
2018-07-09T20:56:45.549Z,60.91
2018-07-09T20:59:12.872Z,60.68
2018-07-09T21:01:40.102Z,60.61
2018-07-09T21:04:12.902Z,61.79
2018-07-09T21:06:40.424Z,60.83
2018-07-09T21:09:07.652Z,60.51
2018-07-09T21:11:34.815Z,59.88
2018-07-09T21:14:02.051Z,60.81
2018-07-09T21:16:29.224Z,60.66
2018-07-09T21:18:56.429Z,61.51
2018-07-09T21:21:28.003Z,60.60
2018-07-09T21:23:55.742Z,60.94
2018-07-09T21:26:23.236Z,60.86
2018-07-09T21:28:50.807Z,60.74
2018-07-09T21:31:18.081Z,61.03
2018-07-09T21:33:45.466Z,60.59
2018-07-09T21:36:13.280Z,60.47
2018-07-09T21:38:41.393Z,61.48
2018-07-09T21:41:08.818Z,61.96
2018-07-09T21:43:36.772Z,61.18
2018-07-09T21:46:03.964Z,61.82
2018-07-09T21:48:31.592Z,61.33
2018-07-09T21:50:58.796Z,62.73
2018-07-09T21:53:26.803Z,64.12
2018-07-09T21:55:54.319Z,63.81
2018-07-09T21:58:21.970Z,65.53
2018-07-09T22:00:49.219Z,66.12
2018-07-09T22:03:16.513Z,64.33
2018-07-09T22:05:43.752Z,64.61
2018-07-09T22:08:10.961Z,65.15
2018-07-09T22:10:38.139Z,65.09
2018-07-09T22:13:05.365Z,64.83
2018-07-09T22:15:32.545Z,63.74
2018-07-09T22:17:59.738Z,64.27
2018-07-09T22:20:27.241Z,63.39
2018-07-09T22:22:54.403Z,63.54
2018-07-09T22:25:21.557Z,63.90
2018-07-09T22:27:48.745Z,63.89
2018-07-09T22:30:19.371Z,62.04
2018-07-09T22:32:47.691Z,64.31
2018-07-09T22:35:15.914Z,62.81
2018-07-09T22:37:44.168Z,63.70
2018-07-09T22:40:12.431Z,63.92
2018-07-09T22:42:40.731Z,63.99
2018-07-09T22:45:08.964Z,63.41
2018-07-09T22:47:37.207Z,62.43
2018-07-09T22:50:05.436Z,62.38
2018-07-09T22:52:33.704Z,63.61
2018-07-09T22:55:13.249Z,62.29
2018-07-09T22:57:41.449Z,62.54
2018-07-09T23:00:09.697Z,63.64
2018-07-09T23:02:37.923Z,63.93
2018-07-09T23:05:06.768Z,64.62
2018-07-09T23:07:37.506Z,63.96
2018-07-09T23:10:17.122Z,63.84
2018-07-09T23:13:18.101Z,64.24
2018-07-09T23:15:57.784Z,65.15
2018-07-09T23:18:37.518Z,65.02
2018-07-09T23:23:51.841Z,65.91
2018-07-09T23:26:19.047Z,66.78
2018-07-09T23:28:46.289Z,66.05
2018-07-09T23:31:13.465Z,66.16
2018-07-09T23:33:40.680Z,66.80
2018-07-09T23:36:07.837Z,67.20
2018-07-09T23:38:35.020Z,66.29
2018-07-09T23:41:02.224Z,65.92
2018-07-09T23:43:29.404Z,66.91
2018-07-09T23:45:56.682Z,65.79
2018-07-09T23:48:23.865Z,66.35
2018-07-09T23:50:51.200Z,66.08
2018-07-09T23:53:18.446Z,66.04
2018-07-09T23:55:50.016Z,66.86
2018-07-09T23:59:29.214Z,66.06
